createdAt,value
2024-05-09T00:01:20.438Z,85.50
2024-05-09T00:04:13.061Z,85.72
2024-05-09T00:06:59.025Z,85.94
2024-05-09T00:09:52.006Z,86.17
2024-05-09T00:12:44.452Z,86.25
2024-05-09T00:15:37.326Z,86.35
2024-05-09T00:18:24.238Z,86.66
2024-05-09T00:21:17.367Z,87.06
2024-05-09T00:24:10.146Z,87.26
2024-05-09T00:27:02.651Z,87.28
2024-05-09T00:29:55.541Z,87.39
2024-05-09T00:32:38.560Z,87.60
2024-05-09T00:35:31.253Z,87.64
2024-05-09T00:38:23.923Z,87.63
2024-05-09T00:41:18.955Z,87.48
2024-05-09T00:44:56.889Z,87.34
2024-05-09T00:47:50.528Z,87.33
2024-05-09T00:50:45.752Z,87.23
2024-05-09T00:53:38.661Z,87.27
2024-05-09T00:56:31.642Z,87.19
2024-05-09T00:59:28.687Z,87.10
2024-05-09T01:02:22.350Z,87.05
2024-05-09T01:05:15.231Z,87.24
2024-05-09T01:08:09.028Z,87.36
2024-05-09T01:11:01.786Z,87.36
2024-05-09T01:13:54.127Z,87.24
2024-05-09T01:16:38.891Z,86.96
2024-05-09T01:19:22.383Z,86.80
2024-05-09T01:22:07.917Z,86.60
2024-05-09T01:24:59.910Z,86.41
2024-05-09T01:28:16.317Z,86.26
2024-05-09T01:31:08.636Z,86.16
2024-05-09T01:34:00.593Z,86.13
2024-05-09T01:36:43.192Z,86.13
2024-05-09T01:39:35.252Z,86.10
2024-05-09T01:44:05.760Z,86.09
2024-05-09T01:52:13.252Z,85.69
2024-05-09T01:55:06.323Z,85.84
2024-05-09T01:57:58.570Z,85.91
2024-05-09T02:00:43.727Z,85.96
2024-05-09T02:03:27.077Z,85.92
2024-05-09T02:06:19.157Z,86.14
2024-05-09T02:09:00.984Z,86.11
2024-05-09T02:11:53.189Z,86.33
2024-05-09T02:14:38.695Z,86.37
2024-05-09T02:17:31.069Z,86.43
2024-05-09T02:20:30.552Z,86.61
2024-05-09T02:23:27.792Z,86.61
2024-05-09T02:26:20.071Z,86.55
2024-05-09T02:29:04.651Z,86.55
2024-05-09T02:31:47.910Z,86.58
2024-05-09T02:34:40.107Z,86.61
2024-05-09T02:37:32.151Z,86.62
2024-05-09T02:40:33.208Z,86.64
2024-05-09T02:43:27.843Z,86.69
2024-05-09T02:46:19.915Z,86.72
2024-05-09T02:49:05.897Z,86.67
2024-05-09T02:51:58.135Z,86.72
2024-05-09T02:54:50.163Z,86.73
2024-05-09T02:57:42.191Z,86.75
2024-05-09T03:00:39.033Z,86.85
2024-05-09T03:03:23.807Z,86.83
2024-05-09T03:06:09.193Z,86.88
2024-05-09T03:09:01.627Z,86.86
2024-05-09T03:11:54.360Z,86.91
2024-05-09T03:14:35.552Z,86.98
2024-05-09T03:17:27.523Z,87.24
2024-05-09T03:20:20.409Z,87.31
2024-05-09T03:23:16.246Z,87.29
2024-05-09T03:26:12.697Z,87.28
2024-05-09T03:28:54.575Z,87.27
2024-05-09T03:31:46.817Z,87.30
2024-05-09T03:34:41.239Z,87.24
2024-05-09T03:37:33.239Z,87.28
2024-05-09T03:40:23.679Z,87.26
2024-05-09T03:43:10.904Z,87.19
2024-05-09T03:46:02.958Z,87.16
2024-05-09T03:48:55.179Z,87.18
2024-05-09T03:51:27.039Z,87.17
2024-05-09T03:54:03.584Z,87.12
2024-05-09T03:56:55.555Z,87.00
2024-05-09T03:59:41.376Z,86.87
2024-05-09T04:02:33.489Z,86.57
2024-05-09T04:05:26.171Z,86.13
2024-05-09T04:08:18.345Z,85.67
2024-05-09T04:11:10.529Z,85.17
2024-05-09T04:13:55.682Z,84.51
2024-05-09T04:16:49.882Z,83.99
2024-05-09T04:19:34.376Z,83.39
2024-05-09T04:22:26.615Z,82.74
2024-05-09T04:25:17.626Z,81.99
2024-05-09T04:28:09.954Z,81.24
2024-05-09T04:30:54.720Z,80.68
2024-05-09T04:33:46.823Z,79.96
2024-05-09T04:36:31.394Z,79.37
2024-05-09T04:39:23.372Z,78.19
2024-05-09T04:42:08.412Z,76.96
2024-05-09T04:44:56.431Z,75.45
2024-05-09T04:47:48.451Z,72.63
2024-05-09T04:50:40.689Z,69.61
2024-05-09T04:53:32.976Z,68.51
2024-05-09T04:56:24.193Z,67.64
2024-05-09T04:59:16.241Z,66.63
2024-05-09T05:02:08.572Z,65.14
2024-05-09T05:05:00.973Z,61.96
2024-05-09T05:07:53.156Z,58.53
2024-05-09T05:10:38.036Z,58.65
2024-05-09T05:13:36.669Z,60.25
2024-05-09T05:16:55.093Z,62.09
2024-05-09T05:19:47.340Z,62.62
2024-05-09T05:22:42.941Z,63.29
2024-05-09T05:25:35.157Z,63.91
2024-05-09T05:28:27.064Z,64.00
2024-05-09T05:31:19.377Z,64.09
2024-05-09T05:34:11.707Z,63.66
2024-05-09T05:36:56.580Z,63.50
2024-05-09T05:39:48.556Z,63.75
2024-05-09T05:42:40.660Z,63.87
2024-05-09T05:45:56.587Z,64.28
2024-05-09T05:48:48.826Z,64.20
2024-05-09T05:51:41.052Z,63.97
2024-05-09T05:54:31.778Z,63.83
2024-05-09T05:57:23.892Z,63.83
2024-05-09T06:00:26.040Z,63.99
2024-05-09T06:03:22.565Z,63.36
2024-05-09T06:06:15.886Z,63.01
2024-05-09T06:09:07.836Z,63.09
2024-05-09T06:17:14.224Z,62.21
2024-05-09T06:20:11.041Z,60.87
2024-05-09T06:23:08.346Z,60.55
2024-05-09T06:26:00.613Z,60.10
2024-05-09T06:28:51.302Z,58.75
2024-05-09T06:31:43.735Z,58.14
2024-05-09T06:34:37.008Z,58.13
2024-05-09T06:37:12.385Z,57.53
2024-05-09T06:40:07.282Z,57.85
2024-05-09T06:42:59.003Z,57.34
2024-05-09T06:45:53.025Z,57.77
2024-05-09T06:48:48.099Z,56.54
2024-05-09T06:51:33.164Z,55.34
2024-05-09T06:54:25.077Z,56.25
2024-05-09T06:57:08.415Z,56.56
2024-05-09T07:00:00.669Z,55.90
2024-05-09T07:02:52.937Z,53.64
2024-05-09T07:05:46.254Z,54.62
2024-05-09T07:08:39.057Z,54.58
2024-05-09T07:11:20.298Z,51.89
2024-05-09T07:14:12.454Z,52.15
2024-05-09T07:16:57.352Z,52.12
2024-05-09T07:19:49.640Z,50.67
2024-05-09T07:22:41.879Z,50.22
2024-05-09T07:25:22.909Z,51.10
2024-05-09T07:28:10.787Z,51.33
2024-05-09T07:32:37.837Z,50.75
2024-05-09T07:35:22.890Z,52.15
2024-05-09T07:38:15.250Z,51.52
2024-05-09T07:40:52.756Z,50.65
2024-05-09T07:43:35.958Z,49.79
2024-05-09T07:50:55.874Z,50.30
2024-05-09T07:53:30.006Z,50.28
2024-05-09T07:55:28.153Z,49.97
2024-05-09T07:58:20.173Z,48.70
2024-05-09T08:02:46.839Z,48.05
2024-05-09T08:05:39.070Z,48.65
2024-05-09T08:08:31.295Z,48.90
2024-05-09T08:11:08.614Z,48.81
2024-05-09T08:14:48.725Z,49.30
2024-05-09T08:28:09.243Z,45.30
2024-05-09T08:31:05.162Z,44.92
2024-05-09T08:33:58.070Z,45.82
2024-05-09T08:36:43.760Z,43.63
2024-05-09T08:39:36.783Z,43.19
2024-05-09T08:42:35.838Z,42.94
2024-05-09T08:45:29.585Z,43.47
2024-05-09T08:48:26.830Z,43.31
2024-05-09T08:51:19.161Z,41.39
2024-05-09T08:54:03.956Z,40.70
2024-05-09T08:56:56.255Z,42.88
2024-05-09T08:59:50.669Z,41.76
2024-05-09T09:02:44.382Z,42.05
2024-05-09T09:05:21.350Z,41.87
2024-05-09T09:08:08.430Z,42.64
2024-05-09T09:10:55.542Z,42.85
2024-05-09T09:13:46.040Z,43.18
2024-05-09T09:16:38.168Z,42.32
2024-05-09T09:19:30.327Z,42.44
2024-05-09T09:22:22.600Z,40.39
2024-05-09T09:25:14.525Z,39.84
2024-05-09T09:28:07.727Z,39.23
2024-05-09T09:31:05.380Z,39.46
2024-05-09T09:33:57.946Z,40.68
2024-05-09T09:36:51.400Z,40.21
2024-05-09T09:39:48.826Z,38.62
2024-05-09T09:42:43.584Z,39.19
2024-05-09T09:45:36.922Z,38.61
2024-05-09T09:48:29.050Z,38.85
2024-05-09T09:51:22.535Z,37.58
2024-05-09T09:54:14.726Z,37.07
2024-05-09T09:57:08.055Z,39.28
2024-05-09T10:00:01.543Z,38.93
2024-05-09T10:02:53.554Z,37.09
2024-05-09T10:05:47.366Z,38.39
2024-05-09T10:08:32.878Z,39.59
2024-05-09T10:11:25.438Z,37.73
2024-05-09T10:14:22.803Z,37.58
2024-05-09T10:17:04.638Z,37.52
2024-05-09T10:19:45.637Z,37.93
2024-05-09T10:22:30.835Z,37.92
2024-05-09T10:25:23.745Z,39.12
2024-05-09T10:28:04.920Z,37.85
2024-05-09T10:30:37.459Z,36.73
2024-05-09T10:33:22.275Z,37.10
2024-05-09T10:36:13.560Z,37.71
2024-05-09T10:38:45.605Z,37.17
2024-05-09T10:41:40.363Z,37.23
2024-05-09T10:44:24.736Z,37.72
2024-05-09T10:47:20.390Z,38.36
2024-05-09T10:50:22.211Z,36.41
2024-05-09T10:53:11.501Z,35.09
2024-05-09T10:56:03.932Z,36.19
2024-05-09T10:58:51.695Z,35.65
2024-05-09T11:01:25.165Z,35.85
2024-05-09T11:04:17.770Z,36.79
2024-05-09T11:07:11.364Z,37.58
2024-05-09T11:10:04.901Z,35.87
2024-05-09T11:12:48.487Z,36.19
2024-05-09T11:15:43.904Z,34.87
2024-05-09T11:18:33.457Z,34.22
2024-05-09T11:21:28.442Z,34.25
2024-05-09T11:24:20.712Z,34.06
2024-05-09T11:27:13.533Z,34.99
2024-05-09T11:30:09.205Z,35.07
2024-05-09T11:32:56.035Z,35.14
2024-05-09T11:35:48.527Z,35.00
2024-05-09T11:38:33.492Z,34.53
2024-05-09T11:41:27.060Z,34.22
2024-05-09T11:44:08.730Z,34.80
2024-05-09T11:46:53.297Z,34.76
2024-05-09T11:49:45.904Z,35.59
2024-05-09T11:52:37.960Z,35.04
2024-05-09T11:57:07.708Z,35.42
2024-05-09T11:59:59.724Z,35.75
2024-05-09T12:02:52.574Z,35.94
2024-05-09T12:05:38.611Z,35.38
2024-05-09T12:08:22.254Z,33.94
2024-05-09T12:11:04.464Z,33.95
2024-05-09T12:13:56.564Z,33.44
2024-05-09T12:16:48.812Z,34.99
2024-05-09T12:19:40.958Z,34.05
2024-05-09T12:22:33.048Z,33.76
2024-05-09T12:25:25.158Z,33.99
2024-05-09T12:28:10.022Z,33.98
2024-05-09T12:30:42.316Z,33.19
2024-05-09T12:33:14.635Z,33.84
2024-05-09T12:35:49.171Z,34.74
2024-05-09T12:38:25.052Z,33.05
2024-05-09T12:41:17.153Z,32.21
2024-05-09T12:43:49.570Z,32.21
2024-05-09T12:46:24.317Z,31.93
2024-05-09T12:49:06.870Z,32.56
2024-05-09T12:51:42.128Z,31.48
2024-05-09T12:54:14.101Z,31.30
2024-05-09T12:56:46.008Z,30.53
2024-05-09T12:59:38.342Z,30.59
2024-05-09T13:02:10.499Z,31.46
2024-05-09T13:04:47.379Z,30.06
2024-05-09T13:07:29.530Z,29.84
2024-05-09T13:10:29.055Z,29.64
2024-05-09T13:13:04.473Z,30.87
2024-05-09T13:15:37.496Z,30.70
2024-05-09T13:18:12.495Z,31.18
2024-05-09T13:21:04.667Z,31.06
2024-05-09T13:23:39.747Z,30.43
2024-05-09T13:26:14.678Z,30.79
2024-05-09T13:28:48.792Z,30.94
2024-05-09T13:31:20.817Z,30.85
2024-05-09T13:33:55.412Z,30.42
2024-05-09T13:36:38.443Z,30.45
2024-05-09T13:39:10.902Z,30.77
2024-05-09T13:41:45.732Z,30.40
2024-05-09T13:44:17.644Z,30.27
2024-05-09T13:46:52.528Z,30.24
2024-05-09T13:49:44.675Z,31.16
2024-05-09T13:52:29.410Z,31.00
2024-05-09T13:55:01.568Z,30.83
2024-05-09T13:57:33.735Z,30.19
2024-05-09T14:00:38.042Z,30.21
2024-05-09T14:03:19.218Z,29.55
2024-05-09T14:06:03.474Z,29.66
2024-05-09T14:08:35.544Z,29.91
2024-05-09T14:11:07.673Z,29.91
2024-05-09T14:13:43.244Z,29.73
2024-05-09T14:16:26.357Z,29.91
2024-05-09T14:19:09.113Z,29.26
2024-05-09T14:21:41.072Z,28.79
2024-05-09T14:24:33.398Z,29.67
2024-05-09T14:27:15.664Z,29.55
2024-05-09T14:30:15.056Z,29.45
2024-05-09T14:33:16.220Z,28.48
2024-05-09T14:36:09.279Z,28.73
2024-05-09T14:38:52.279Z,28.66
2024-05-09T14:41:44.290Z,28.49
2024-05-09T14:44:36.269Z,29.22
2024-05-09T14:47:28.326Z,30.15
2024-05-09T14:50:27.875Z,30.24
2024-05-09T14:53:19.386Z,30.62
2024-05-09T14:56:11.804Z,30.62
2024-05-09T14:59:03.868Z,31.14
2024-05-09T15:01:56.120Z,29.58
2024-05-09T15:04:48.424Z,29.72
2024-05-09T15:07:31.706Z,30.08
2024-05-09T15:10:31.517Z,30.85
2024-05-09T15:13:20.288Z,29.55
2024-05-09T15:16:12.854Z,28.60
2024-05-09T15:18:59.522Z,29.33
2024-05-09T15:21:44.572Z,29.51
2024-05-09T15:24:35.813Z,29.73
2024-05-09T15:27:20.929Z,29.85
2024-05-09T15:30:10.407Z,28.44
2024-05-09T15:33:04.642Z,28.58
2024-05-09T15:35:47.532Z,29.20
2024-05-09T15:38:40.182Z,30.14
2024-05-09T15:41:32.084Z,30.00
2024-05-09T15:44:16.997Z,29.99
2024-05-09T15:46:58.927Z,29.87
2024-05-09T15:49:38.463Z,29.52
2024-05-09T15:52:30.664Z,29.50
2024-05-09T15:55:18.742Z,28.43
2024-05-09T15:58:02.954Z,28.25
2024-05-09T16:00:55.589Z,28.43
2024-05-09T16:03:47.927Z,28.97
2024-05-09T16:06:40.591Z,29.61
2024-05-09T16:09:32.724Z,30.15
2024-05-09T16:12:23.483Z,29.78
2024-05-09T16:15:09.136Z,29.26
2024-05-09T16:18:01.385Z,28.87
2024-05-09T16:24:23.978Z,28.84
2024-05-09T16:27:16.084Z,29.33
2024-05-09T16:30:04.066Z,29.61
2024-05-09T16:32:45.225Z,29.86
2024-05-09T16:35:28.603Z,29.80
2024-05-09T16:38:20.993Z,29.28
2024-05-09T16:41:14.846Z,28.66
2024-05-09T16:44:03.964Z,28.73
2024-05-09T16:46:46.971Z,29.12
2024-05-09T16:49:39.115Z,28.84
2024-05-09T16:52:31.218Z,28.59
2024-05-09T16:55:23.220Z,28.39
2024-05-09T16:58:15.623Z,27.63
2024-05-09T17:01:07.757Z,27.05
2024-05-09T17:04:00.141Z,27.47
2024-05-09T17:06:50.924Z,27.45
2024-05-09T17:09:42.926Z,28.16
2024-05-09T17:12:35.111Z,28.43
2024-05-09T17:15:27.287Z,28.87
2024-05-09T17:18:19.663Z,29.62
2024-05-09T17:21:11.636Z,30.54
2024-05-09T17:24:03.802Z,31.31
2024-05-09T17:26:55.760Z,32.39
2024-05-09T17:29:48.160Z,32.92
2024-05-09T17:32:40.781Z,33.78
2024-05-09T17:35:33.139Z,34.35
2024-05-09T17:38:26.074Z,34.99
2024-05-09T17:41:11.811Z,35.67
2024-05-09T17:44:06.278Z,36.17
2024-05-09T17:46:50.811Z,36.73
2024-05-09T17:49:43.039Z,37.25
2024-05-09T17:52:35.188Z,37.72
2024-05-09T17:55:12.773Z,38.42
2024-05-09T17:58:05.543Z,38.78
2024-05-09T18:00:57.907Z,39.20
2024-05-09T18:03:50.252Z,39.96
2024-05-09T18:06:34.997Z,40.51
2024-05-09T18:09:17.086Z,40.76
2024-05-09T18:12:10.168Z,41.16
2024-05-09T18:15:02.677Z,41.44
2024-05-09T18:17:55.129Z,41.94
2024-05-09T18:20:47.291Z,42.31
2024-05-09T18:23:39.542Z,42.57
2024-05-09T18:26:31.565Z,43.18
2024-05-09T18:29:23.704Z,43.19
2024-05-09T18:32:15.598Z,43.35
2024-05-09T18:35:08.883Z,43.62
2024-05-09T18:37:55.441Z,44.07
2024-05-09T18:40:49.257Z,44.48
2024-05-09T18:43:45.237Z,44.98
2024-05-09T18:46:40.624Z,45.00
2024-05-09T18:49:25.470Z,45.81
2024-05-09T18:52:11.436Z,45.79
2024-05-09T18:55:04.386Z,45.46
2024-05-09T18:57:56.599Z,45.60
2024-05-09T19:00:40.232Z,46.27
2024-05-09T19:03:35.118Z,47.41
2024-05-09T19:06:27.269Z,47.59
2024-05-09T19:09:19.430Z,47.70
2024-05-09T19:12:11.546Z,48.22
2024-05-09T19:15:03.727Z,48.65
2024-05-09T19:17:55.837Z,49.46
2024-05-09T19:20:48.054Z,49.01
2024-05-09T19:23:38.084Z,49.25
2024-05-09T19:26:33.005Z,50.20
2024-05-09T19:29:16.755Z,50.54
2024-05-09T19:32:01.890Z,51.59
2024-05-09T19:34:46.701Z,52.45
2024-05-09T19:37:37.219Z,53.28
2024-05-09T19:40:29.003Z,53.31
2024-05-09T19:44:59.170Z,53.52
2024-05-09T19:47:35.548Z,53.50
2024-05-09T19:50:36.853Z,54.57
2024-05-09T19:53:34.361Z,55.22
2024-05-09T19:56:26.549Z,56.00
2024-05-09T19:59:08.684Z,57.58
2024-05-09T20:02:00.978Z,57.68
2024-05-09T20:04:53.136Z,58.66
2024-05-09T20:07:38.018Z,58.61
2024-05-09T20:10:33.025Z,59.55
2024-05-09T20:13:17.079Z,59.49
2024-05-09T20:16:10.350Z,60.33
2024-05-09T20:19:02.551Z,60.68
2024-05-09T20:21:54.743Z,60.96
2024-05-09T20:30:01.125Z,61.49
2024-05-09T20:32:53.155Z,62.30
2024-05-09T20:35:43.661Z,63.49
2024-05-09T20:38:35.906Z,63.89
2024-05-09T20:41:27.944Z,64.23
2024-05-09T20:44:19.837Z,64.63
2024-05-09T20:47:12.081Z,64.65
2024-05-09T20:50:09.163Z,65.13
2024-05-09T20:52:59.023Z,65.77
2024-05-09T20:55:35.400Z,66.66
2024-05-09T20:58:17.723Z,66.98
2024-05-09T21:06:31.613Z,69.07
2024-05-09T21:09:25.007Z,69.06
2024-05-09T21:12:15.580Z,69.09
2024-05-09T21:14:58.976Z,69.43
2024-05-09T21:17:48.771Z,69.68
2024-05-09T21:20:39.099Z,70.21
2024-05-09T21:23:53.732Z,70.03
2024-05-09T21:26:36.651Z,70.79
2024-05-09T21:29:26.309Z,71.11
2024-05-09T21:32:15.789Z,71.80
2024-05-09T21:35:06.292Z,72.06
2024-05-09T21:37:55.600Z,72.37
2024-05-09T21:40:37.459Z,72.78
2024-05-09T21:43:28.640Z,73.14
2024-05-09T21:46:17.912Z,73.54
2024-05-09T21:49:07.333Z,73.69
2024-05-09T21:51:49.978Z,74.08
2024-05-09T21:54:29.213Z,74.22
2024-05-09T21:57:18.498Z,74.32
2024-05-09T21:59:57.508Z,74.70
2024-05-09T22:02:32.391Z,74.94
2024-05-09T22:05:21.666Z,75.03
2024-05-09T22:13:27.086Z,76.41
2024-05-09T22:16:19.881Z,76.49
2024-05-09T22:19:03.823Z,76.83
2024-05-09T22:21:56.685Z,76.90
2024-05-09T22:24:48.425Z,77.32
2024-05-09T22:27:42.054Z,77.57
2024-05-09T22:30:38.477Z,77.60
2024-05-09T22:33:32.977Z,77.88
2024-05-09T22:36:25.902Z,78.17
2024-05-09T22:39:18.374Z,78.34
2024-05-09T22:42:11.062Z,78.78
2024-05-09T22:45:04.153Z,78.94
2024-05-09T22:47:56.943Z,79.17
2024-05-09T22:50:49.195Z,79.28
2024-05-09T22:53:42.098Z,79.52
2024-05-09T22:56:35.586Z,79.89
2024-05-09T22:59:26.994Z,80.02
2024-05-09T23:02:12.937Z,80.22
2024-05-09T23:05:05.156Z,80.29
2024-05-09T23:07:58.513Z,80.29
2024-05-09T23:10:51.266Z,80.43
2024-05-09T23:13:44.261Z,80.94
2024-05-09T23:17:01.475Z,81.07
2024-05-09T23:24:41.031Z,80.83
2024-05-09T23:27:33.186Z,81.32
2024-05-09T23:33:20.381Z,81.79
2024-05-09T23:36:12.529Z,81.97
2024-05-09T23:39:04.741Z,82.03
2024-05-09T23:41:56.796Z,82.15
2024-05-09T23:44:48.811Z,82.34
2024-05-09T23:47:41.184Z,82.42
2024-05-09T23:50:33.633Z,82.67
2024-05-09T23:53:28.669Z,82.68
2024-05-09T23:56:21.445Z,82.73
2024-05-09T23:59:13.246Z,82.83
